createdAt,value
2019-04-05T00:02:39.284Z,3.17
2019-04-05T00:05:26.641Z,3.67
2019-04-05T00:08:14.064Z,4.57
2019-04-05T00:11:01.707Z,4.43
2019-04-05T00:13:49.056Z,4.23
2019-04-05T00:16:36.165Z,2.87
2019-04-05T00:19:23.580Z,3.20
2019-04-05T00:22:11.189Z,3.40
2019-04-05T00:24:58.682Z,3.70
2019-04-05T00:27:46.770Z,3.70
2019-04-05T00:30:34.523Z,3.67
2019-04-05T00:33:22.594Z,3.67
2019-04-05T00:36:10.427Z,4.30
2019-04-05T00:38:57.844Z,4.50
2019-04-05T00:41:45.568Z,4.70
2019-04-05T00:44:32.811Z,4.70
2019-04-05T00:47:20.437Z,4.80
2019-04-05T00:50:08.466Z,4.97
2019-04-05T00:52:55.947Z,5.00
2019-04-05T00:55:43.360Z,4.40
2019-04-05T00:58:31.084Z,5.27
2019-04-05T01:01:18.453Z,4.50
2019-04-05T01:04:06.244Z,3.60
2019-04-05T01:06:53.714Z,2.53
2019-04-05T01:09:41.194Z,2.57
2019-04-05T01:12:28.860Z,2.60
2019-04-05T01:15:17.249Z,2.80
2019-04-05T01:18:04.997Z,2.80
2019-04-05T01:20:54.221Z,2.50
2019-04-05T01:23:41.298Z,2.77
2019-04-05T01:26:28.565Z,2.53
2019-04-05T01:29:15.744Z,2.67
2019-04-05T01:32:03.078Z,2.53
2019-04-05T01:34:50.737Z,2.57
2019-04-05T01:37:38.595Z,2.67
2019-04-05T01:40:27.443Z,2.63
2019-04-05T01:43:15.328Z,2.90
2019-04-05T01:46:03.200Z,2.80
2019-04-05T01:48:50.687Z,3.00
2019-04-05T01:51:37.857Z,3.50
2019-04-05T01:54:25.468Z,3.20
2019-04-05T01:57:13.254Z,3.93
2019-04-05T02:00:00.578Z,3.90
2019-04-05T02:02:48.181Z,3.57
2019-04-05T02:05:35.943Z,3.57
2019-04-05T02:08:23.343Z,4.47
2019-04-05T02:11:10.752Z,4.07
2019-04-05T02:13:58.379Z,4.63
2019-04-05T02:16:45.960Z,5.00
2019-04-05T02:19:33.396Z,5.03
2019-04-05T02:22:20.970Z,4.93
2019-04-05T02:25:08.555Z,5.33
2019-04-05T02:27:56.466Z,5.30
2019-04-05T02:30:43.869Z,5.90
2019-04-05T02:33:31.285Z,6.23
2019-04-05T02:36:18.811Z,5.33
2019-04-05T02:39:07.398Z,5.40
2019-04-05T02:41:56.902Z,5.60
2019-04-05T02:44:45.807Z,5.97
2019-04-05T02:47:34.014Z,6.13
2019-04-05T02:50:21.835Z,5.23
2019-04-05T02:53:11.388Z,5.70
2019-04-05T02:56:02.761Z,5.47
2019-04-05T02:58:48.800Z,5.37
2019-04-05T03:01:36.717Z,6.03
2019-04-05T03:04:24.548Z,5.50
2019-04-05T03:07:13.129Z,6.60
2019-04-05T03:10:00.878Z,5.20
2019-04-05T03:12:48.699Z,5.63
2019-04-05T03:15:36.262Z,6.87
2019-04-05T03:18:23.965Z,7.03
2019-04-05T03:21:13.126Z,7.97
2019-04-05T03:24:03.555Z,8.17
2019-04-05T03:26:56.585Z,8.50
2019-04-05T03:29:44.213Z,7.53
2019-04-05T03:32:31.919Z,6.57
2019-04-05T03:35:19.433Z,6.77
2019-04-05T03:38:07.738Z,6.03
2019-04-05T03:40:55.538Z,5.60
2019-04-05T03:43:42.898Z,5.03
2019-04-05T03:46:30.767Z,4.90
2019-04-05T03:49:18.994Z,2.93
2019-04-05T03:52:07.219Z,2.40
2019-04-05T03:54:54.988Z,3.43
2019-04-05T03:57:42.790Z,6.47
2019-04-05T04:00:30.343Z,8.13
2019-04-05T04:03:18.218Z,10.10
2019-04-05T04:06:06.107Z,9.50
2019-04-05T04:08:53.482Z,9.33
2019-04-05T04:11:41.041Z,9.63
2019-04-05T04:14:29.453Z,10.17
2019-04-05T04:17:17.540Z,10.47
2019-04-05T04:20:05.464Z,12.10
2019-04-05T04:22:53.014Z,12.93
2019-04-05T04:25:41.547Z,13.80
2019-04-05T04:28:29.985Z,14.13
2019-04-05T04:31:17.677Z,13.70
2019-04-05T04:34:06.688Z,14.33
2019-04-05T04:36:54.335Z,14.17
2019-04-05T04:39:42.080Z,13.40
2019-04-05T04:42:29.850Z,12.93
2019-04-05T04:45:18.125Z,14.00
2019-04-05T04:48:05.603Z,13.57
2019-04-05T04:50:53.518Z,13.03
2019-04-05T04:53:41.034Z,13.30
2019-04-05T04:56:29.113Z,11.00
2019-04-05T04:59:16.945Z,10.53
2019-04-05T05:02:04.645Z,10.83
2019-04-05T05:04:52.581Z,12.33
2019-04-05T05:07:40.722Z,11.50
2019-04-05T05:10:28.275Z,11.63
2019-04-05T05:13:15.530Z,11.60
2019-04-05T05:16:03.225Z,13.00
2019-04-05T05:18:51.002Z,10.80
2019-04-05T05:21:38.778Z,10.53
2019-04-05T05:24:27.211Z,11.10
2019-04-05T05:27:14.870Z,11.20
2019-04-05T05:30:02.479Z,10.67
2019-04-05T05:32:50.425Z,7.97
2019-04-05T05:35:37.907Z,8.70
2019-04-05T05:38:25.881Z,9.17
2019-04-05T05:41:13.632Z,8.40
2019-04-05T05:44:01.459Z,9.07
2019-04-05T05:46:49.297Z,8.00
2019-04-05T05:49:36.919Z,7.93
2019-04-05T05:52:25.261Z,8.03
2019-04-05T05:55:12.808Z,9.03
2019-04-05T05:58:00.432Z,8.37
2019-04-05T06:00:48.079Z,8.77
2019-04-05T06:03:35.505Z,8.60
2019-04-05T06:06:22.873Z,6.93
2019-04-05T06:09:10.265Z,7.40
2019-04-05T06:11:58.117Z,8.10
2019-04-05T06:14:45.338Z,7.70
2019-04-05T06:17:32.504Z,8.37
2019-04-05T06:20:20.285Z,8.73
2019-04-05T06:23:08.129Z,8.17
2019-04-05T06:25:55.574Z,9.33
2019-04-05T06:28:42.720Z,9.57
2019-04-05T06:31:29.971Z,9.03
2019-04-05T06:34:17.524Z,10.83
2019-04-05T06:37:05.281Z,10.33
2019-04-05T06:39:52.670Z,10.47
2019-04-05T06:42:40.347Z,11.20
2019-04-05T06:45:27.818Z,9.83
2019-04-05T06:48:19.298Z,9.70
2019-04-05T06:51:04.673Z,10.73
2019-04-05T06:53:52.288Z,10.27
2019-04-05T06:56:39.745Z,10.20
2019-04-05T06:59:27.325Z,10.87
2019-04-05T07:02:14.943Z,11.10
2019-04-05T07:05:02.594Z,11.07
2019-04-05T07:07:49.697Z,11.80
2019-04-05T07:10:37.903Z,12.40
2019-04-05T07:13:27.475Z,13.20
2019-04-05T07:16:14.447Z,12.90
2019-04-05T07:19:02.188Z,13.30
2019-04-05T07:21:50.231Z,13.00
2019-04-05T07:24:37.794Z,11.40
2019-04-05T07:27:25.250Z,11.73
2019-04-05T07:30:12.683Z,12.73
2019-04-05T07:33:00.309Z,11.60
2019-04-05T07:35:47.967Z,11.43
2019-04-05T07:38:35.479Z,11.20
2019-04-05T07:41:22.916Z,11.27
2019-04-05T07:44:10.345Z,11.07
2019-04-05T07:46:58.027Z,10.50
2019-04-05T07:49:45.367Z,10.10
2019-04-05T07:52:32.501Z,9.33
2019-04-05T07:55:20.240Z,8.87
2019-04-05T07:58:07.765Z,8.90
2019-04-05T08:00:56.404Z,9.87
2019-04-05T08:03:43.856Z,9.30
2019-04-05T08:06:32.662Z,9.10
2019-04-05T08:09:20.578Z,9.63
2019-04-05T08:12:08.410Z,10.03
2019-04-05T08:14:56.094Z,8.47
2019-04-05T08:17:43.428Z,8.60
2019-04-05T08:20:30.945Z,7.17
2019-04-05T08:23:18.308Z,6.60
2019-04-05T08:26:05.726Z,7.13
2019-04-05T08:28:53.510Z,6.97
2019-04-05T08:31:41.093Z,8.20
2019-04-05T08:34:28.457Z,7.27
2019-04-05T08:37:16.045Z,6.70
2019-04-05T08:40:03.456Z,5.83
2019-04-05T08:42:51.271Z,5.23
2019-04-05T08:45:38.874Z,6.07
2019-04-05T08:48:26.707Z,6.00
2019-04-05T08:51:14.501Z,5.37
2019-04-05T08:54:01.910Z,5.43
2019-04-05T08:56:49.945Z,4.97
2019-04-05T08:59:37.664Z,5.80
2019-04-05T09:02:25.126Z,5.83
2019-04-05T09:05:13.116Z,6.97
2019-04-05T09:08:00.356Z,6.83
2019-04-05T09:10:47.607Z,6.60
2019-04-05T09:13:35.223Z,5.70
2019-04-05T09:16:22.476Z,5.17
2019-04-05T09:19:22.750Z,4.17
2019-04-05T09:21:59.406Z,4.43
2019-04-05T09:24:47.341Z,4.23
2019-04-05T09:27:34.701Z,4.30
2019-04-05T09:30:22.586Z,4.07
2019-04-05T09:33:09.790Z,4.20
2019-04-05T09:35:57.178Z,3.77
2019-04-05T09:38:44.379Z,2.87
2019-04-05T09:41:32.331Z,3.33
2019-04-05T09:44:20.098Z,3.80
2019-04-05T09:47:07.289Z,3.63
2019-04-05T09:49:54.293Z,4.37
2019-04-05T09:52:42.103Z,4.67
2019-04-05T09:55:29.469Z,5.27
2019-04-05T09:58:17.137Z,5.03
2019-04-05T10:01:04.887Z,4.87
2019-04-05T10:03:52.637Z,4.17
2019-04-05T10:06:40.017Z,4.40
2019-04-05T10:09:27.680Z,4.60
2019-04-05T10:12:15.667Z,4.17
2019-04-05T10:15:02.774Z,4.90
2019-04-05T10:17:50.628Z,4.00
2019-04-05T10:20:39.091Z,3.60
2019-04-05T10:23:27.318Z,3.20
2019-04-05T10:26:14.953Z,3.97
2019-04-05T10:29:02.362Z,4.53
2019-04-05T10:31:49.932Z,4.40
2019-04-05T10:34:37.162Z,3.90
2019-04-05T10:37:24.799Z,3.47
2019-04-05T10:40:13.384Z,3.50
2019-04-05T10:43:01.614Z,3.53
2019-04-05T10:45:49.031Z,3.67
2019-04-05T10:48:36.827Z,4.00
2019-04-05T10:51:26.362Z,3.60
2019-04-05T10:54:13.844Z,3.80
2019-04-05T10:57:01.507Z,4.03
2019-04-05T10:59:48.877Z,3.33
2019-04-05T11:02:36.203Z,3.90
2019-04-05T11:05:23.484Z,3.60
2019-04-05T11:08:11.222Z,3.30
2019-04-05T11:10:58.571Z,3.10
2019-04-05T11:13:45.923Z,3.20
2019-04-05T11:16:33.348Z,3.23
2019-04-05T11:19:21.065Z,3.17
2019-04-05T11:22:08.880Z,3.30
2019-04-05T11:24:56.019Z,3.17
2019-04-05T11:27:43.879Z,3.40
2019-04-05T11:30:42.682Z,2.90
2019-04-05T11:33:30.308Z,2.47
2019-04-05T11:36:18.144Z,2.20
2019-04-05T11:39:07.876Z,2.20
2019-04-05T11:41:56.636Z,2.30
2019-04-05T11:44:44.402Z,2.40
2019-04-05T11:47:32.140Z,2.77
2019-04-05T11:50:20.049Z,2.37
2019-04-05T11:53:07.752Z,2.50
2019-04-05T11:55:55.288Z,2.50
2019-04-05T11:58:45.181Z,2.60
2019-04-05T12:01:51.552Z,2.40
2019-04-05T12:04:38.883Z,2.60
2019-04-05T12:07:27.486Z,2.83
2019-04-05T12:10:18.729Z,2.20
2019-04-05T12:13:04.057Z,1.97
2019-04-05T12:15:51.942Z,1.87
2019-04-05T12:18:39.761Z,2.47
2019-04-05T12:21:27.539Z,2.43
2019-04-05T12:24:15.363Z,2.40
2019-04-05T12:27:04.843Z,2.33
2019-04-05T12:29:51.959Z,2.27
2019-04-05T12:32:41.546Z,2.50
2019-04-05T12:35:29.287Z,2.30
2019-04-05T12:38:31.569Z,2.07
2019-04-05T12:41:19.293Z,2.70
2019-04-05T12:44:06.678Z,2.67
2019-04-05T12:46:54.076Z,2.57
2019-04-05T12:49:41.390Z,2.30
2019-04-05T12:52:29.069Z,2.53
2019-04-05T12:55:16.629Z,2.50
2019-04-05T12:58:03.779Z,2.40
2019-04-05T13:00:51.276Z,3.20
2019-04-05T13:03:39.012Z,3.20
2019-04-05T13:06:26.630Z,2.73
2019-04-05T13:09:14.674Z,2.73
2019-04-05T13:12:02.181Z,3.33
2019-04-05T13:14:49.205Z,3.67
2019-04-05T13:17:37.073Z,3.10
2019-04-05T13:20:25.022Z,2.97
2019-04-05T13:23:12.928Z,3.73
2019-04-05T13:26:00.919Z,3.27
2019-04-05T13:28:49.185Z,3.27
2019-04-05T13:31:36.965Z,2.97
2019-04-05T13:34:25.890Z,3.60
2019-04-05T13:37:20.258Z,3.73
2019-04-05T13:40:02.875Z,3.67
2019-04-05T13:42:50.942Z,3.53
2019-04-05T13:45:38.898Z,3.80
2019-04-05T13:48:26.582Z,4.17
2019-04-05T13:51:14.024Z,3.27
2019-04-05T13:54:01.923Z,3.13
2019-04-05T13:56:49.841Z,3.57
2019-04-05T13:59:37.213Z,2.80
2019-04-05T14:02:24.672Z,2.50
2019-04-05T14:05:12.800Z,2.87
2019-04-05T14:08:09.785Z,3.10
2019-04-05T14:10:49.360Z,2.70
2019-04-05T14:13:42.127Z,2.50
2019-04-05T14:16:26.779Z,2.73
2019-04-05T14:19:18.296Z,2.53
2019-04-05T14:22:08.931Z,2.60
2019-04-05T14:24:56.573Z,2.93
2019-04-05T14:27:42.392Z,3.00
2019-04-05T14:30:32.463Z,2.70
2019-04-05T14:33:18.979Z,3.10
2019-04-05T14:36:06.968Z,3.10
2019-04-05T14:38:54.814Z,2.97
2019-04-05T14:41:41.912Z,2.90
2019-04-05T14:44:29.565Z,2.83
2019-04-05T14:47:19.765Z,2.90
2019-04-05T14:50:07.145Z,2.60
2019-04-05T14:52:54.756Z,2.57
2019-04-05T14:55:42.299Z,2.20
2019-04-05T14:58:29.416Z,2.17
2019-04-05T15:01:17.514Z,2.40
2019-04-05T15:04:05.177Z,2.77
2019-04-05T15:06:52.896Z,2.50
2019-04-05T15:09:39.955Z,2.27
2019-04-05T15:12:29.086Z,2.40
2019-04-05T15:15:17.127Z,2.53
2019-04-05T15:18:04.654Z,2.33
2019-04-05T15:20:52.054Z,2.37
2019-04-05T15:23:41.271Z,2.47
2019-04-05T15:26:28.052Z,2.63
2019-04-05T15:29:15.401Z,2.60
2019-04-05T15:32:02.787Z,2.63
2019-04-05T15:34:50.319Z,2.80
2019-04-05T15:37:37.982Z,2.30
2019-04-05T15:40:25.427Z,2.67
2019-04-05T15:43:13.212Z,2.37
2019-04-05T15:46:00.920Z,2.37
2019-04-05T15:48:51.480Z,2.80
2019-04-05T15:51:37.649Z,2.90
2019-04-05T15:54:29.123Z,2.43
2019-04-05T15:57:16.829Z,2.50
2019-04-05T16:00:06.132Z,2.43
2019-04-05T16:02:53.333Z,1.90
2019-04-05T16:05:41.757Z,2.30
2019-04-05T16:08:29.570Z,2.20
2019-04-05T16:11:16.941Z,2.27
2019-04-05T16:14:04.477Z,2.37
2019-04-05T16:16:53.670Z,2.40
2019-04-05T16:19:41.789Z,2.30
2019-04-05T16:22:31.418Z,2.53
2019-04-05T16:25:18.157Z,2.50
2019-04-05T16:28:05.692Z,2.40
2019-04-05T16:30:53.770Z,2.40
2019-04-05T16:33:41.130Z,2.20
2019-04-05T16:36:31.017Z,2.00
2019-04-05T16:39:19.275Z,2.07
2019-04-05T16:42:06.643Z,2.13
2019-04-05T16:44:54.179Z,2.20
2019-04-05T16:47:41.580Z,2.37
2019-04-05T16:50:28.811Z,2.93
2019-04-05T16:53:16.594Z,2.53
2019-04-05T16:56:03.780Z,2.47
2019-04-05T16:58:52.387Z,2.30
2019-04-05T17:01:39.846Z,2.50
2019-04-05T17:04:27.464Z,2.17
2019-04-05T17:07:14.847Z,2.10
2019-04-05T17:10:02.250Z,2.53
2019-04-05T17:12:50.025Z,2.20
2019-04-05T17:15:37.593Z,2.50
2019-04-05T17:18:25.067Z,2.80
2019-04-05T17:21:12.642Z,2.60
2019-04-05T17:24:00.189Z,2.57
2019-04-05T17:26:47.829Z,2.60
2019-04-05T17:29:35.715Z,2.60
2019-04-05T17:32:23.121Z,3.07
2019-04-05T17:35:10.988Z,3.00
2019-04-05T17:37:58.104Z,3.40
2019-04-05T17:40:45.590Z,3.30
2019-04-05T17:43:33.125Z,3.13
2019-04-05T17:46:20.583Z,2.97
2019-04-05T17:49:08.393Z,3.07
2019-04-05T17:51:56.346Z,2.83
2019-04-05T17:54:43.560Z,3.00
2019-04-05T17:57:30.999Z,2.87
2019-04-05T18:00:22.345Z,3.17
2019-04-05T18:03:09.653Z,3.00
2019-04-05T18:05:57.226Z,3.10
2019-04-05T18:08:44.878Z,3.30
2019-04-05T18:11:32.505Z,3.53
2019-04-05T18:14:19.973Z,3.37
2019-04-05T18:17:07.622Z,3.00
2019-04-05T18:19:55.921Z,3.17
2019-04-05T18:22:43.410Z,3.47
2019-04-05T18:25:30.858Z,3.23
2019-04-05T18:28:18.657Z,3.40
2019-04-05T18:31:06.024Z,3.30
2019-04-05T18:33:54.288Z,3.43
2019-04-05T18:36:41.400Z,3.70
2019-04-05T18:39:28.824Z,3.93
2019-04-05T18:42:16.248Z,3.40
2019-04-05T18:45:03.866Z,3.60
2019-04-05T18:47:51.800Z,3.73
2019-04-05T18:50:39.192Z,3.60
2019-04-05T18:53:37.003Z,3.60
2019-04-05T18:56:16.093Z,4.23
2019-04-05T18:59:03.749Z,4.07
2019-04-05T19:01:51.185Z,5.13
2019-04-05T19:04:38.308Z,4.80
2019-04-05T19:07:26.034Z,4.87
2019-04-05T19:10:14.001Z,4.73
2019-04-05T19:13:01.641Z,4.77
2019-04-05T19:15:49.688Z,4.70
2019-04-05T19:18:37.747Z,4.90
2019-04-05T19:21:25.349Z,5.23
2019-04-05T19:24:12.737Z,5.13
2019-04-05T19:27:00.277Z,5.97
2019-04-05T19:29:47.805Z,5.43
2019-04-05T19:49:31.049Z,6.40
2019-04-05T19:52:18.708Z,5.83
2019-04-05T19:55:06.989Z,5.97
2019-04-05T19:57:54.703Z,6.23
2019-04-05T20:00:42.199Z,6.23
2019-04-05T20:03:29.612Z,6.13
2019-04-05T20:06:17.047Z,6.33
2019-04-05T20:09:06.706Z,6.70
2019-04-05T20:11:54.064Z,6.07
2019-04-05T20:14:41.599Z,6.60
2019-04-05T20:17:29.266Z,6.10
2019-04-05T20:20:17.033Z,5.93
2019-04-05T20:23:05.120Z,6.17
2019-04-05T20:25:52.742Z,6.30
2019-04-05T20:28:40.471Z,6.93
2019-04-05T20:31:27.986Z,6.83
2019-04-05T20:34:15.621Z,6.50
2019-04-05T20:37:03.002Z,6.10
2019-04-05T20:39:50.896Z,6.03
2019-04-05T20:42:37.980Z,6.50
2019-04-05T20:45:25.653Z,6.03
2019-04-05T20:48:13.425Z,5.90
2019-04-05T20:51:00.987Z,6.67
2019-04-05T20:53:48.429Z,6.87
2019-04-05T20:56:36.354Z,6.50
2019-04-05T20:59:23.952Z,6.37
2019-04-05T21:02:11.403Z,7.20
2019-04-05T21:04:58.502Z,6.90
2019-04-05T21:07:45.929Z,7.60
2019-04-05T21:10:33.692Z,7.47
2019-04-05T21:13:20.840Z,7.33
2019-04-05T21:16:08.190Z,6.90
2019-04-05T21:18:55.558Z,7.20
2019-04-05T21:21:43.237Z,7.30
2019-04-05T21:24:36.036Z,7.23
2019-04-05T21:27:19.664Z,7.50
2019-04-05T21:30:07.524Z,6.90
2019-04-05T21:32:55.255Z,7.53
2019-04-05T21:35:42.977Z,7.17
2019-04-05T21:38:30.394Z,7.80
2019-04-05T21:41:17.933Z,7.20
2019-04-05T21:44:05.381Z,7.37
2019-04-05T21:46:53.741Z,7.93
2019-04-05T21:49:41.409Z,7.37
2019-04-05T21:52:29.337Z,7.20
2019-04-05T21:55:16.606Z,7.80
2019-04-05T21:58:04.032Z,8.20
2019-04-05T22:00:55.256Z,7.37
2019-04-05T22:03:42.772Z,7.77
2019-04-05T22:06:29.901Z,7.93
2019-04-05T22:09:17.435Z,7.73
2019-04-05T22:12:05.226Z,7.83
2019-04-05T22:14:52.528Z,8.03
2019-04-05T22:17:40.182Z,8.67
2019-04-05T22:20:27.841Z,8.30
2019-04-05T22:23:15.310Z,8.20
2019-04-05T22:26:03.141Z,8.43
2019-04-05T22:28:50.925Z,8.53
2019-04-05T22:31:38.316Z,7.40
2019-04-05T22:34:25.844Z,7.57
2019-04-05T22:37:13.582Z,8.37
2019-04-05T22:40:01.035Z,8.67
2019-04-05T22:42:48.532Z,8.10
2019-04-05T22:45:36.039Z,9.63
2019-04-05T22:48:23.811Z,8.17
2019-04-05T22:51:11.178Z,8.03
2019-04-05T22:53:58.865Z,9.13
2019-04-05T22:56:46.444Z,8.23
2019-04-05T22:59:34.567Z,8.83
2019-04-05T23:02:22.049Z,8.40
2019-04-05T23:05:09.612Z,8.50
2019-04-05T23:07:56.735Z,8.17
2019-04-05T23:10:44.219Z,8.63
2019-04-05T23:13:31.337Z,9.07
2019-04-05T23:16:18.821Z,9.20
2019-04-05T23:19:06.838Z,8.00
2019-04-05T23:21:53.913Z,9.00
2019-04-05T23:24:41.629Z,9.00
2019-04-05T23:27:29.152Z,9.07
2019-04-05T23:30:18.205Z,8.37
2019-04-05T23:33:05.982Z,10.47
2019-04-05T23:35:53.888Z,9.33
2019-04-05T23:38:41.397Z,10.00
2019-04-05T23:41:28.917Z,10.37
2019-04-05T23:44:16.465Z,9.97
2019-04-05T23:47:04.264Z,9.67
2019-04-05T23:49:51.674Z,9.80
2019-04-05T23:52:39.606Z,9.93
2019-04-05T23:55:33.083Z,10.17
2019-04-05T23:58:16.834Z,10.53
